Airfield :
LOGIN :

Register | Disclaimer

   EN    FR    IT 

 










Legend :    VFR   Marginal VFR   IFR   Intensive IFR   Very Intensive IFR
Visi :
Ceiling :
>= 8 km
>= 3000ft
5 to 8 km
1000 to 3000 ft
1500m to 5 km
500 to 1000 ft
800 to 1500m
200 to 500 ft
< 800m
< 200 ft
Symbols :   Thunderstorms  Fog  Heavy snow  Heavy precipitations  Wind > 20 kt
SIGMETs :     Misc.  Thunderstorms  Icing  Turbulence  Mountain Waves  Volcanic Ashes






- Airport Elevation : 779 ft
- IATA code : CMF


LFLB - Chambery / Aix-Les-Bains

CURRENT METAR :
  • 281700Z AUTO 19010KT CAVOK 14/10 Q1018 TEMPO SHRA SCT040TCU

EXPIRED METARs :
  • 281630Z AUTO 19008KT CAVOK 14/10 Q1018 TEMPO SHRA SCT040TCU
  • 281600Z AUTO 20009KT 9999 FEW080 BKN098 14/10 Q1018 TEMPO SHRA SCT040TCU
  • 281530Z AUTO 21007KT 170V250 9999 SCT074 BKN094 BKN210 14/10 Q1018 TEMPO SHRA SCT040TCU
  • 281500Z AUTO 20006KT 170V230 9999 FEW072 BKN092 15/10 Q1019 TEMPO SHRA SCT040TCU
  • 281430Z AUTO 18007KT 170V230 9999 SCT074 BKN088 15/10 Q1018 TEMPO SHRA SCT035TCU

TAF TAF LFLB
Valid from the 28 at 15:00 until the 29 at 15:00 UTC


281400Z 2815/2915 18010KT 9999 BKN060
PROB40
TEMPO 2815/2819 SHRA SCT040TCU
TEMPO 2901/2906 5000 -RA
BECMG 2908/2910 36005KT



MET'MAP, your aeronautical weather chart ! - Copyright ORBIFLY December 2007 - Disclaimer

ORBIFLY MET'MAP TEAM :

Programming & Development : Alexandra Zaïnal
Concept & original design : Baudouin d'Aumeries
Assistance for programming : Marc-Olivier Méhu
Technical & hardware support : Manuel Goepfert

Contact : metmap@orbifly.com




SOURCES & CREDITS :

   NOAA